Time,TemperatureF,DewpointF,PressureIn,WindDirection,WindDirectionDegrees,WindSpeedMPH,WindSpeedGustMPH,Humidity,HourlyPrecipIn,Conditions,Clouds,dailyrainin,SoftwareType,DateUTC
2013-03-05 00:01:00,44.0,29.0,29.93,NNW,342,0.0,-999.0,56,-99.99,,,-99.99,,2013-03-05 08:01:00,
2013-03-05 00:11:00,44.0,29.0,29.93,NNW,342,0.0,-999.0,56,-99.99,,,-99.99,,2013-03-05 08:11:00,
2013-03-05 00:21:00,44.0,29.0,29.93,NNW,342,0.0,-999.0,55,-99.99,,,-99.99,,2013-03-05 08:21:00,
2013-03-05 00:31:00,44.0,28.0,29.93,NNW,341,0.0,-999.0,52,-99.99,,,-99.99,,2013-03-05 08:31:00,
2013-03-05 00:41:00,44.0,28.0,29.93,NNW,341,0.0,-999.0,52,-99.99,,,-99.99,,2013-03-05 08:41:00,
2013-03-05 00:52:00,43.0,28.0,29.92,NNW,341,0.0,-999.0,56,-99.99,,,-99.99,,2013-03-05 08:52:00,
2013-03-05 01:01:00,43.0,28.0,29.92,NNW,341,0.0,-999.0,56,-99.99,,,-99.99,,2013-03-05 09:01:00,
2013-03-05 01:11:00,43.0,28.0,29.92,NNW,341,0.0,-999.0,56,-99.99,,,-99.99,,2013-03-05 09:11:00,
2013-03-05 01:21:00,43.0,28.0,29.91,NNW,341,0.0,-999.0,56,-99.99,,,-99.99,,2013-03-05 09:21:00,
2013-03-05 01:31:00,44.0,29.0,29.92,NNW,341,0.0,-999.0,55,-99.99,,,-99.99,,2013-03-05 09:31:00,
2013-03-05 01:42:00,44.0,29.0,29.92,NNW,341,0.0,-999.0,55,-99.99,,,-99.99,,2013-03-05 09:42:00,
2013-03-05 01:52:00,44.0,29.0,29.91,NNW,341,0.0,-999.0,55,-99.99,,,-99.99,,2013-03-05 09:52:00,
2013-03-05 02:01:00,44.0,28.0,29.91,NNW,341,0.0,-999.0,54,-99.99,,,-99.99,,2013-03-05 10:01:00,
2013-03-05 02:11:00,44.0,28.0,29.91,NNW,341,0.0,-999.0,54,-99.99,,,-99.99,,2013-03-05 10:11:00,
2013-03-05 02:21:00,44.0,28.0,29.91,NNW,341,0.0,-999.0,53,-99.99,,,-99.99,,2013-03-05 10:21:00,
2013-03-05 02:32:00,44.0,29.0,29.91,NNW,341,0.0,-999.0,55,-99.99,,,-99.99,,2013-03-05 10:32:00,
2013-03-05 02:41:00,44.0,29.0,29.91,NNW,341,0.0,-999.0,55,-99.99,,,-99.99,,2013-03-05 10:41:00,
2013-03-05 02:52:00,43.0,31.0,29.90,NNW,341,0.0,-999.0,63,-99.99,,,-99.99,,2013-03-05 10:52:00,
2013-03-05 03:01:00,42.0,32.0,29.89,NNW,341,0.0,-999.0,67,-99.99,,,-99.99,,2013-03-05 11:01:00,
2013-03-05 03:11:00,42.0,32.0,29.89,NNW,341,0.0,-999.0,67,-99.99,,,-99.99,,2013-03-05 11:11:00,
2013-03-05 03:21:00,41.0,32.0,29.88,NNW,341,0.0,-999.0,71,-99.99,,,-99.99,,2013-03-05 11:21:00,
2013-03-05 03:32:00,41.0,33.0,29.88,NNW,341,0.0,-999.0,74,-99.99,,,-99.99,,2013-03-05 11:32:00,
2013-03-05 03:52:00,42.0,35.0,29.88,NNW,341,0.0,-999.0,75,-99.99,,,-99.99,,2013-03-05 11:52:00,
2013-03-05 04:02:00,42.0,35.0,29.87,NNW,341,0.0,-999.0,75,-99.99,,,-99.99,,2013-03-05 12:02:00,
2013-03-05 04:22:00,43.0,36.0,29.87,NNW,341,0.0,-999.0,76,-99.99,,,-99.99,,2013-03-05 12:22:00,
2013-03-05 04:32:00,43.0,36.0,29.87,NNW,341,0.0,-999.0,76,-99.99,,,-99.99,,2013-03-05 12:32:00,
2013-03-05 04:52:00,43.0,36.0,29.87,NNW,341,0.0,-999.0,76,-99.99,,,-99.99,,2013-03-05 12:52:00,
2013-03-05 05:01:00,43.0,35.0,29.86,NNW,341,0.0,-999.0,74,-99.99,,,-99.99,,2013-03-05 13:01:00,
2013-03-05 05:21:00,43.0,35.0,29.86,NNW,341,0.0,-999.0,73,-99.99,,,-99.99,,2013-03-05 13:21:00,
2013-03-05 05:31:00,42.0,34.0,29.85,NNW,341,0.0,-999.0,73,-99.99,,,-99.99,,2013-03-05 13:31:00,
2013-03-05 05:42:00,42.0,34.0,29.85,NNW,341,0.0,-999.0,73,-99.99,,,-99.99,,2013-03-05 13:42:00,
2013-03-05 05:52:00,42.0,36.0,29.84,NNW,341,0.0,-999.0,79,-99.99,,,-99.99,,2013-03-05 13:52:00,
2013-03-05 06:02:00,42.0,35.0,29.84,NNW,341,0.0,-999.0,77,-99.99,,,-99.99,,2013-03-05 14:02:00,
2013-03-05 06:21:00,41.0,35.0,29.83,NNW,341,0.0,-999.0,79,-99.99,,,-99.99,,2013-03-05 14:21:00,
2013-03-05 06:31:00,41.0,35.0,29.83,NNW,341,0.0,-999.0,80,-99.99,,,-99.99,,2013-03-05 14:31:00,
2013-03-05 06:52:00,42.0,37.0,29.83,NNW,341,0.0,-999.0,81,-99.99,,,-99.99,,2013-03-05 14:52:00,
2013-03-05 07:01:00,42.0,37.0,29.83,NNW,341,0.0,-999.0,81,-99.99,,,-99.99,,2013-03-05 15:01:00,
2013-03-05 07:21:00,42.0,38.0,29.83,NNW,341,0.0,-999.0,84,-99.99,,,-99.99,,2013-03-05 15:21:00,
2013-03-05 07:31:00,43.0,38.0,29.83,NNW,341,0.0,-999.0,83,-99.99,,,-99.99,,2013-03-05 15:31:00,
2013-03-05 07:52:00,43.0,38.0,29.84,NNW,341,0.0,-999.0,81,-99.99,,,-99.99,,2013-03-05 15:52:00,
2013-03-05 08:01:00,44.0,39.0,29.85,East,90,0.0,-999.0,81,-99.99,,,-99.99,,2013-03-05 16:01:00,
2013-03-05 08:11:00,44.0,39.0,29.85,East,90,0.0,-999.0,81,-99.99,,,-99.99,,2013-03-05 16:11:00,
2013-03-05 08:21:00,44.0,39.0,29.85,East,90,0.0,-999.0,84,-99.99,,,-99.99,,2013-03-05 16:21:00,
2013-03-05 08:31:00,44.0,39.0,29.85,East,90,0.0,-999.0,83,-99.99,,,-99.99,,2013-03-05 16:31:00,
2013-03-05 08:41:00,44.0,39.0,29.85,East,90,0.0,-999.0,83,-99.99,,,-99.99,,2013-03-05 16:41:00,
2013-03-05 08:52:00,45.0,39.0,29.86,East,89,0.0,-999.0,80,-99.99,,,-99.99,,2013-03-05 16:52:00,
2013-03-05 09:01:00,45.0,40.0,29.86,East,89,0.0,-999.0,81,-99.99,,,-99.99,,2013-03-05 17:01:00,
2013-03-05 09:11:00,45.0,40.0,29.86,East,89,0.0,-999.0,81,-99.99,,,-99.99,,2013-03-05 17:11:00,
2013-03-05 09:21:00,45.0,39.0,29.86,East,89,0.0,-999.0,78,-99.99,,,-99.99,,2013-03-05 17:21:00,
2013-03-05 09:32:00,45.0,39.0,29.85,East,89,0.0,-999.0,79,-99.99,,,-99.99,,2013-03-05 17:32:00,
2013-03-05 09:41:00,45.0,39.0,29.85,East,89,0.0,-999.0,79,-99.99,,,-99.99,,2013-03-05 17:41:00,
2013-03-05 09:52:00,45.0,38.0,29.85,East,89,0.0,-999.0,76,-99.99,,,-99.99,,2013-03-05 17:52:00,
2013-03-05 10:01:00,46.0,38.0,29.85,East,89,0.0,-999.0,74,-99.99,,,-99.99,,2013-03-05 18:01:00,
2013-03-05 10:11:00,46.0,38.0,29.85,East,89,0.0,-999.0,74,-99.99,,,-99.99,,2013-03-05 18:11:00,
2013-03-05 10:21:00,46.0,37.0,29.85,NE,56,0.0,-999.0,72,-99.99,,,-99.99,,2013-03-05 18:21:00,
2013-03-05 10:31:00,46.0,38.0,29.84,NE,42,0.0,-999.0,73,-99.99,,,-99.99,,2013-03-05 18:31:00,
2013-03-05 10:41:00,46.0,38.0,29.84,NE,42,0.0,-999.0,73,-99.99,,,-99.99,,2013-03-05 18:41:00,
2013-03-05 10:53:00,47.0,38.0,29.84,NE,37,1.0,-999.0,70,-99.99,,,-99.99,,2013-03-05 18:53:00,
2013-03-05 11:01:00,47.0,38.0,29.84,NE,37,1.0,-999.0,70,-99.99,,,-99.99,,2013-03-05 19:01:00,
2013-03-05 11:11:00,47.0,38.0,29.84,NE,37,1.0,-999.0,70,-99.99,,,-99.99,,2013-03-05 19:11:00,
2013-03-05 11:21:00,48.0,36.0,29.83,NNW,347,0.0,-999.0,64,-99.99,,,-99.99,,2013-03-05 19:21:00,
2013-03-05 11:31:00,48.0,36.0,29.83,NE,34,0.0,-999.0,64,-99.99,,,-99.99,,2013-03-05 19:31:00,
2013-03-05 11:42:00,48.0,36.0,29.83,NE,34,0.0,-999.0,64,-99.99,,,-99.99,,2013-03-05 19:42:00,
2013-03-05 11:52:00,48.0,36.0,29.82,NE,40,2.0,-999.0,63,-99.99,,,-99.99,,2013-03-05 19:52:00,
2013-03-05 12:01:00,49.0,36.0,29.82,NNE,32,2.0,-999.0,61,-99.99,,,-99.99,,2013-03-05 20:01:00,
2013-03-05 12:11:00,49.0,34.0,29.81,NE,53,1.0,-999.0,56,-99.99,,,-99.99,,2013-03-05 20:11:00,
2013-03-05 12:21:00,49.0,34.0,29.81,NE,53,1.0,-999.0,56,-99.99,,,-99.99,,2013-03-05 20:21:00,
2013-03-05 12:32:00,50.0,38.0,29.81,NE,51,0.0,-999.0,63,-99.99,,,-99.99,,2013-03-05 20:32:00,
2013-03-05 12:41:00,50.0,38.0,29.81,NE,51,0.0,-999.0,63,-99.99,,,-99.99,,2013-03-05 20:41:00,
2013-03-05 12:52:00,50.0,38.0,29.81,NW,306,0.0,-999.0,63,-99.99,,,-99.99,,2013-03-05 20:52:00,
2013-03-05 13:01:00,50.0,38.0,29.81,WNW,292,0.0,-999.0,64,-99.99,,,-99.99,,2013-03-05 21:01:00,
2013-03-05 13:11:00,50.0,38.0,29.81,WNW,292,0.0,-999.0,64,-99.99,,,-99.99,,2013-03-05 21:11:00,
2013-03-05 13:21:00,49.0,39.0,29.80,SSE,162,0.0,-999.0,69,-99.99,,,-99.99,,2013-03-05 21:21:00,
2013-03-05 13:31:00,50.0,40.0,29.80,SSE,162,0.0,-999.0,69,-99.99,,,-99.99,,2013-03-05 21:31:00,
2013-03-05 13:41:00,50.0,40.0,29.80,SSE,162,0.0,-999.0,69,-99.99,,,-99.99,,2013-03-05 21:41:00,
2013-03-05 13:52:00,50.0,41.0,29.80,SE,128,0.0,-999.0,70,-99.99,,,-99.99,,2013-03-05 21:52:00,
2013-03-05 14:01:00,50.0,41.0,29.80,East,99,0.0,-999.0,72,-99.99,,,-99.99,,2013-03-05 22:01:00,
2013-03-05 14:11:00,50.0,41.0,29.80,East,99,0.0,-999.0,72,-99.99,,,-99.99,,2013-03-05 22:11:00,
2013-03-05 14:21:00,50.0,41.0,29.80,ENE,57,0.0,-999.0,71,-99.99,,,-99.99,,2013-03-05 22:21:00,
2013-03-05 14:31:00,50.0,41.0,29.79,ENE,67,0.0,-999.0,72,-99.99,,,-99.99,,2013-03-05 22:31:00,
2013-03-05 14:41:00,50.0,41.0,29.79,ENE,67,0.0,-999.0,72,-99.99,,,-99.99,,2013-03-05 22:41:00,
2013-03-05 14:52:00,50.0,40.0,29.79,ENE,67,0.0,-999.0,69,-99.99,,,-99.99,,2013-03-05 22:52:00,
2013-03-05 15:01:00,50.0,41.0,29.79,ENE,67,0.0,-999.0,70,-99.99,,,-99.99,,2013-03-05 23:01:00,
2013-03-05 15:11:00,50.0,41.0,29.79,ENE,67,0.0,-999.0,70,-99.99,,,-99.99,,2013-03-05 23:11:00,
2013-03-05 15:21:00,50.0,41.0,29.78,NNE,18,0.0,-999.0,70,-99.99,,,-99.99,,2013-03-05 23:21:00,
2013-03-05 15:32:00,50.0,41.0,29.79,NNE,18,0.0,-999.0,72,-99.99,,,-99.99,,2013-03-05 23:32:00,
2013-03-05 15:41:00,50.0,41.0,29.79,NNE,18,0.0,-999.0,72,-99.99,,,-99.99,,2013-03-05 23:41:00,
2013-03-05 15:52:00,49.0,40.0,29.79,NNE,18,0.0,-999.0,72,-99.99,,,-99.99,,2013-03-05 23:52:00,
2013-03-05 16:01:00,49.0,41.0,29.79,NNE,18,0.0,-999.0,73,-99.99,,,-99.99,,2013-03-06 00:01:00,
2013-03-05 16:11:00,49.0,41.0,29.79,NNE,18,0.0,-999.0,73,-99.99,,,-99.99,,2013-03-06 00:11:00,
2013-03-05 16:21:00,49.0,41.0,29.79,NNE,18,0.0,-999.0,75,-99.99,,,-99.99,,2013-03-06 00:21:00,
2013-03-05 16:32:00,48.0,41.0,29.79,NNE,18,0.0,-999.0,78,-99.99,,,-99.99,,2013-03-06 00:32:00,
2013-03-05 16:41:00,48.0,41.0,29.79,NNE,18,0.0,-999.0,78,-99.99,,,-99.99,,2013-03-06 00:41:00,
2013-03-05 16:52:00,48.0,42.0,29.78,NNE,18,0.0,-999.0,81,-99.99,,,-99.99,,2013-03-06 00:52:00,
2013-03-05 17:01:00,48.0,43.0,29.78,NNE,18,0.0,-999.0,82,-99.99,,,-99.99,,2013-03-06 01:01:00,
2013-03-05 17:11:00,48.0,43.0,29.78,NNE,18,0.0,-999.0,82,-99.99,,,-99.99,,2013-03-06 01:11:00,
2013-03-05 17:21:00,48.0,43.0,29.79,NNE,18,0.0,-999.0,83,-99.99,,,-99.99,,2013-03-06 01:21:00,
2013-03-05 17:31:00,47.0,42.0,29.79,NNE,18,0.0,-999.0,83,-99.99,,,-99.99,,2013-03-06 01:31:00,
2013-03-05 17:41:00,47.0,42.0,29.79,NNE,18,0.0,-999.0,83,-99.99,,,-99.99,,2013-03-06 01:41:00,
2013-03-05 17:52:00,47.0,42.0,29.78,NNE,18,0.0,-999.0,83,-99.99,,,-99.99,,2013-03-06 01:52:00,
2013-03-05 18:01:00,47.0,41.0,29.78,NE,34,0.0,-999.0,81,-99.99,,,-99.99,,2013-03-06 02:01:00,
2013-03-05 18:11:00,47.0,41.0,29.78,NE,34,0.0,-999.0,81,-99.99,,,-99.99,,2013-03-06 02:11:00,
2013-03-05 18:21:00,46.0,40.0,29.78,NE,34,0.0,-999.0,80,-99.99,,,-99.99,,2013-03-06 02:21:00,
2013-03-05 18:31:00,46.0,40.0,29.79,NE,34,0.0,-999.0,80,-99.99,,,-99.99,,2013-03-06 02:31:00,
2013-03-05 18:41:00,46.0,40.0,29.79,NE,34,0.0,-999.0,80,-99.99,,,-99.99,,2013-03-06 02:41:00,
2013-03-05 18:52:00,46.0,41.0,29.79,NE,34,0.0,-999.0,83,-99.99,,,-99.99,,2013-03-06 02:52:00,
2013-03-05 19:01:00,46.0,41.0,29.79,NE,34,0.0,-999.0,83,-99.99,,,-99.99,,2013-03-06 03:01:00,
2013-03-05 19:11:00,46.0,41.0,29.79,NE,34,0.0,-999.0,83,-99.99,,,-99.99,,2013-03-06 03:11:00,
2013-03-05 19:21:00,46.0,41.0,29.79,NE,34,0.0,-999.0,83,-99.99,,,-99.99,,2013-03-06 03:21:00,
2013-03-05 19:31:00,45.0,40.0,29.79,NE,34,0.0,-999.0,83,-99.99,,,-99.99,,2013-03-06 03:31:00,
2013-03-05 19:41:00,45.0,40.0,29.79,NE,34,0.0,-999.0,83,-99.99,,,-99.99,,2013-03-06 03:41:00,
2013-03-05 19:52:00,45.0,41.0,29.79,NE,34,0.0,-999.0,85,-99.99,,,-99.99,,2013-03-06 03:52:00,
2013-03-05 20:01:00,45.0,41.0,29.78,NE,34,0.0,-999.0,85,-99.99,,,-99.99,,2013-03-06 04:01:00,
2013-03-05 20:11:00,45.0,41.0,29.78,NE,34,0.0,-999.0,85,-99.99,,,-99.99,,2013-03-06 04:11:00,
2013-03-05 20:21:00,45.0,41.0,29.78,NE,34,0.0,-999.0,87,-99.99,,,-99.99,,2013-03-06 04:21:00,
2013-03-05 20:31:00,45.0,42.0,29.78,NE,34,0.0,-999.0,88,-99.99,,,-99.99,,2013-03-06 04:31:00,
2013-03-05 20:41:00,45.0,42.0,29.78,NE,34,0.0,-999.0,88,-99.99,,,-99.99,,2013-03-06 04:41:00,
2013-03-05 20:52:00,45.0,42.0,29.78,NE,34,0.0,-999.0,88,-99.99,,,-99.99,,2013-03-06 04:52:00,
2013-03-05 21:01:00,45.0,42.0,29.78,NE,34,0.0,-999.0,88,-99.99,,,-99.99,,2013-03-06 05:01:00,
2013-03-05 21:11:00,45.0,42.0,29.78,NE,34,0.0,-999.0,88,-99.99,,,-99.99,,2013-03-06 05:11:00,
2013-03-05 21:22:00,45.0,41.0,29.78,NE,34,0.0,-999.0,87,-99.99,,,-99.99,,2013-03-06 05:22:00,
2013-03-05 21:32:00,45.0,41.0,29.78,NE,34,0.0,-999.0,87,-99.99,,,-99.99,,2013-03-06 05:32:00,
2013-03-05 21:42:00,45.0,41.0,29.78,NE,34,0.0,-999.0,87,-99.99,,,-99.99,,2013-03-06 05:42:00,
2013-03-05 21:52:00,44.0,40.0,29.78,NNE,32,0.0,-999.0,87,-99.99,,,-99.99,,2013-03-06 05:52:00,
2013-03-05 22:01:00,44.0,41.0,29.78,NNE,32,0.0,-999.0,88,-99.99,,,-99.99,,2013-03-06 06:01:00,
2013-03-05 22:11:00,44.0,41.0,29.78,NNE,32,0.0,-999.0,88,-99.99,,,-99.99,,2013-03-06 06:11:00,
2013-03-05 22:22:00,44.0,41.0,29.78,North,5,0.0,-999.0,89,-99.99,,,-99.99,,2013-03-06 06:22:00,
2013-03-05 22:31:00,44.0,41.0,29.77,North,355,0.0,-999.0,90,-99.99,,,-99.99,,2013-03-06 06:31:00,
2013-03-05 22:41:00,44.0,41.0,29.77,North,355,0.0,-999.0,90,-99.99,,,-99.99,,2013-03-06 06:41:00,
2013-03-05 22:52:00,44.0,41.0,29.76,NE,52,1.0,-999.0,90,-99.99,,,-99.99,,2013-03-06 06:52:00,
2013-03-05 23:01:00,44.0,42.0,29.76,NNE,28,0.0,-999.0,91,-99.99,,,-99.99,,2013-03-06 07:01:00,
2013-03-05 23:11:00,44.0,42.0,29.76,NNE,28,0.0,-999.0,91,-99.99,,,-99.99,,2013-03-06 07:11:00,
2013-03-05 23:22:00,44.0,42.0,29.75,NNE,26,0.0,-999.0,91,-99.99,,,-99.99,,2013-03-06 07:22:00,
2013-03-05 23:31:00,44.0,42.0,29.75,NW,304,0.0,-999.0,91,-99.99,,,-99.99,,2013-03-06 07:31:00,
2013-03-05 23:41:00,44.0,42.0,29.75,NW,304,0.0,-999.0,91,-99.99,,,-99.99,,2013-03-06 07:41:00,
2013-03-05 23:52:00,44.0,42.0,29.74,WNW,303,0.0,-999.0,91,-99.99,,,-99.99,,2013-03-06 07:52:00,